CNS weather

Cairns International Airport
Cairns, Queensland, Australia

Public forecast

Using degrees Celsius for public forecast. Weather courtesy of forecast.io.

Current aviation weather report (METAR) for Cairns International Airport

Retrieved 2019/10/16 09:30 UTC (17 minutes ago):

YBCS 160930Z AUTO 00000KT 9999 // BKN025 24/20 Q1013 RF000/0000 NOSIG

Aviation forecast (TAF) for Cairns International Airport

Retrieved 2019/10/16 06:00 UTC (4 hours ago):

TAF YBCS 160516Z 1606/1706 02010KT 9999 FEW035 FM160900 VRB03KT 9999 SCT020 BKN030 FM162300 04010KT 9999 SCT025